createdAt,value
2022-08-29T00:01:58.577Z,101513.56
2022-08-29T00:05:01.218Z,101513.56
2022-08-29T00:08:06.675Z,101510.53
2022-08-29T00:11:09.293Z,101520.97
2022-08-29T00:14:20.448Z,101515.88
2022-08-29T00:17:25.918Z,101521.09
2022-08-29T00:20:34.625Z,101521.97
2022-08-29T00:23:39.017Z,101520.03
2022-08-29T00:26:41.614Z,101523.38
2022-08-29T00:29:44.235Z,101520.03
2022-08-29T00:32:46.805Z,101520.91
2022-08-29T00:35:49.445Z,101526.28
2022-08-29T00:38:54.799Z,101515.00
2022-08-29T00:42:01.011Z,101525.31
2022-08-29T00:45:05.954Z,101531.78
2022-08-29T00:48:13.089Z,101534.06
2022-08-29T00:51:18.763Z,101533.78
2022-08-29T00:54:23.530Z,101535.91
2022-08-29T00:57:29.429Z,101534.53
2022-08-29T01:00:33.106Z,101547.06
2022-08-29T01:03:42.687Z,101539.56
2022-08-29T01:06:46.644Z,101538.00
2022-08-29T01:09:50.614Z,101543.97
2022-08-29T01:12:52.401Z,101531.84
2022-08-29T01:15:55.905Z,101531.66
2022-08-29T01:19:04.125Z,101528.28
2022-08-29T01:22:19.874Z,101539.56
2022-08-29T01:25:26.853Z,101535.31
2022-08-29T01:28:32.671Z,101542.81
2022-08-29T01:31:55.895Z,101540.69
2022-08-29T01:35:00.373Z,101548.03
2022-08-29T01:38:03.108Z,101544.38
2022-08-29T01:41:07.429Z,101550.34
2022-08-29T01:44:12.473Z,101545.56
2022-08-29T01:47:15.206Z,101548.22
2022-08-29T01:50:18.255Z,101547.41
2022-08-29T01:53:20.869Z,101539.47
2022-08-29T01:56:27.280Z,101545.84
2022-08-29T01:59:31.539Z,101541.03
2022-08-29T02:02:34.328Z,101544.41
2022-08-29T02:05:37.006Z,101541.72
2022-08-29T02:08:41.290Z,101541.03
2022-08-29T02:11:46.417Z,101544.84
2022-08-29T02:14:50.601Z,101543.22
2022-08-29T02:17:53.157Z,101540.84
2022-08-29T02:20:55.826Z,101540.94
2022-08-29T02:24:11.459Z,101538.75
2022-08-29T02:27:24.936Z,101541.41
2022-08-29T02:30:27.662Z,101544.16
2022-08-29T02:33:31.288Z,101544.44
2022-08-29T02:36:35.010Z,101536.38
2022-08-29T02:39:37.622Z,101541.75
2022-08-29T02:42:41.578Z,101538.66
2022-08-29T02:45:44.834Z,101542.56
2022-08-29T02:48:54.126Z,101541.09
2022-08-29T02:52:06.510Z,101545.72
2022-08-29T02:55:12.237Z,101538.13
2022-08-29T02:58:16.753Z,101538.75
2022-08-29T03:01:21.528Z,101536.81
2022-08-29T03:04:24.270Z,101535.50
2022-08-29T03:07:26.922Z,101538.75
2022-08-29T03:10:29.790Z,101534.75
2022-08-29T03:13:34.623Z,101532.53
2022-08-29T03:16:37.275Z,101531.25
2022-08-29T03:19:39.901Z,101534.91
2022-08-29T03:22:42.614Z,101529.31
2022-08-29T03:25:45.235Z,101536.44
2022-08-29T03:28:49.220Z,101524.91
2022-08-29T03:31:51.832Z,101536.06
2022-08-29T03:34:55.785Z,101544.66
2022-08-29T03:37:58.505Z,101540.53
2022-08-29T03:41:01.084Z,101545.47
2022-08-29T03:44:05.215Z,101535.66
2022-08-29T03:47:08.251Z,101532.88
2022-08-29T03:50:13.096Z,101532.88
2022-08-29T03:53:17.249Z,101538.25
2022-08-29T03:56:20.626Z,101534.50
2022-08-29T03:59:24.705Z,101529.41
2022-08-29T04:02:27.430Z,101541.81
2022-08-29T04:05:30.106Z,101540.16
2022-08-29T04:08:32.708Z,101532.88
2022-08-29T04:11:35.287Z,101543.06
2022-08-29T04:14:39.477Z,101537.97
2022-08-29T04:17:51.036Z,101551.19
2022-08-29T04:21:02.573Z,101554.00
2022-08-29T04:24:05.261Z,101563.16
2022-08-29T04:27:08.062Z,101567.16
2022-08-29T04:30:15.533Z,101561.31
2022-08-29T04:33:22.521Z,101571.50
2022-08-29T04:36:26.049Z,101572.59
2022-08-29T04:39:28.618Z,101571.69
2022-08-29T04:42:32.028Z,101572.28
2022-08-29T04:45:36.743Z,101570.53
2022-08-29T04:48:39.306Z,101575.91
2022-08-29T04:51:41.955Z,101575.75
2022-08-29T04:54:44.537Z,101580.06
2022-08-29T04:57:47.482Z,101579.28
2022-08-29T05:00:52.642Z,101581.88
2022-08-29T05:03:56.477Z,101586.22
2022-08-29T05:06:59.104Z,101587.19
2022-08-29T05:10:05.314Z,101586.50
2022-08-29T05:13:07.910Z,101597.25
2022-08-29T05:16:13.974Z,101597.94
2022-08-29T05:19:16.990Z,101597.25
2022-08-29T05:22:21.070Z,101595.25
2022-08-29T05:25:24.186Z,101605.41
2022-08-29T05:28:26.927Z,101610.53
2022-08-29T05:31:31.222Z,101608.41
2022-08-29T05:34:35.292Z,101623.00
2022-08-29T05:37:38.696Z,101623.41
2022-08-29T05:40:41.859Z,101621.28
2022-08-29T05:43:44.513Z,101627.22
2022-08-29T05:46:48.716Z,101629.34
2022-08-29T05:49:51.339Z,101633.75
2022-08-29T05:52:53.921Z,101637.38
2022-08-29T05:55:56.679Z,101636.66
2022-08-29T05:58:59.497Z,101630.41
2022-08-29T06:02:03.874Z,101635.28
2022-08-29T06:05:07.166Z,101631.16
2022-08-29T06:08:13.135Z,101636.63
2022-08-29T06:11:17.259Z,101640.38
2022-08-29T06:14:19.853Z,101646.81
2022-08-29T06:17:23.802Z,101641.63
2022-08-29T06:20:26.448Z,101644.97
2022-08-29T06:23:29.063Z,101638.91
2022-08-29T06:26:32.803Z,101636.31
2022-08-29T06:29:43.508Z,101641.69
2022-08-29T06:32:47.769Z,101646.00
2022-08-29T06:35:50.337Z,101642.75
2022-08-29T06:38:53.007Z,101648.19
2022-08-29T06:41:55.601Z,101651.34
2022-08-29T06:44:58.208Z,101660.19
2022-08-29T06:48:02.107Z,101659.72
2022-08-29T06:51:05.077Z,101653.13
2022-08-29T06:54:09.166Z,101659.94
2022-08-29T06:57:12.777Z,101665.63
2022-08-29T07:00:22.126Z,101664.47
2022-08-29T07:03:26.604Z,101671.13
2022-08-29T07:06:29.813Z,101656.38
2022-08-29T07:09:32.390Z,101659.09
2022-08-29T07:12:35.293Z,101655.47
2022-08-29T07:15:38.151Z,101653.09
2022-08-29T07:18:42.102Z,101650.66
2022-08-29T07:21:44.681Z,101653.63
2022-08-29T07:24:47.307Z,101659.75
2022-08-29T07:27:53.349Z,101656.56
2022-08-29T07:30:56.213Z,101655.13
2022-08-29T07:34:02.925Z,101661.66
2022-08-29T07:37:06.122Z,101657.69
2022-08-29T07:40:11.098Z,101668.16
2022-08-29T07:43:19.249Z,101662.44
2022-08-29T07:46:22.889Z,101663.84
2022-08-29T07:49:40.339Z,101659.31
2022-08-29T07:52:43.823Z,101664.53
2022-08-29T07:55:46.632Z,101673.53
2022-08-29T07:58:49.355Z,101672.75
2022-08-29T08:01:52.266Z,101680.28
2022-08-29T08:04:56.227Z,101686.97
2022-08-29T08:08:02.159Z,101688.97
2022-08-29T08:11:09.628Z,101684.84
2022-08-29T08:14:12.980Z,101687.97
2022-08-29T08:17:15.600Z,101688.53
2022-08-29T08:20:19.701Z,101692.94
2022-08-29T08:23:22.208Z,101697.16
2022-08-29T08:26:25.023Z,101698.34
2022-08-29T08:29:27.662Z,101701.59
2022-08-29T08:32:32.667Z,101700.91
2022-08-29T08:35:41.967Z,101703.19
2022-08-29T08:38:44.915Z,101701.47
2022-08-29T08:41:55.704Z,101703.00
2022-08-29T08:45:09.020Z,101712.16
2022-08-29T08:48:17.247Z,101703.41
2022-08-29T08:51:24.554Z,101709.13
2022-08-29T08:54:34.257Z,101702.53
2022-08-29T08:57:40.866Z,101704.25
2022-08-29T09:00:47.180Z,101705.53
2022-08-29T09:04:10.497Z,101710.72
2022-08-29T09:07:42.059Z,101715.69
2022-08-29T09:10:58.855Z,101710.41
2022-08-29T09:14:08.519Z,101721.31
2022-08-29T09:17:20.304Z,101708.47
2022-08-29T09:20:25.982Z,101714.38
2022-08-29T09:23:37.435Z,101710.09
2022-08-29T09:26:40.761Z,101708.97
2022-08-29T09:29:43.702Z,101715.63
2022-08-29T09:32:54.700Z,101706.44
2022-08-29T09:35:57.291Z,101706.94
2022-08-29T09:39:12.109Z,101706.88
2022-08-29T09:42:19.257Z,101717.09
2022-08-29T09:45:25.643Z,101709.63
2022-08-29T09:48:32.132Z,101719.66
2022-08-29T09:51:39.416Z,101720.59
2022-08-29T09:54:44.432Z,101722.00
2022-08-29T09:57:53.061Z,101720.44
2022-08-29T10:01:02.182Z,101721.00
2022-08-29T10:04:09.043Z,101715.94
2022-08-29T10:07:17.415Z,101726.19
2022-08-29T10:10:24.204Z,101719.91
2022-08-29T10:13:34.376Z,101724.94
2022-08-29T10:16:47.201Z,101723.38
2022-08-29T10:19:50.353Z,101735.34
2022-08-29T10:22:59.126Z,101731.38
2022-08-29T10:26:10.569Z,101735.34
2022-08-29T10:29:29.657Z,101735.66
2022-08-29T10:32:55.949Z,101728.59
2022-08-29T10:36:02.170Z,101727.19
2022-08-29T10:39:13.670Z,101729.16
2022-08-29T10:42:21.554Z,101734.34
2022-08-29T10:45:30.684Z,101730.63
2022-08-29T10:48:38.518Z,101736.44
2022-08-29T10:51:48.431Z,101733.72
2022-08-29T10:55:00.307Z,101737.25
2022-08-29T10:58:12.781Z,101740.28
2022-08-29T11:01:22.314Z,101736.06
2022-08-29T11:04:31.788Z,101745.41
2022-08-29T11:07:40.735Z,101742.06
2022-08-29T11:10:49.673Z,101741.72
2022-08-29T11:13:58.737Z,101744.66
2022-08-29T11:17:06.971Z,101754.34
2022-08-29T11:20:13.829Z,101747.69
2022-08-29T11:23:28.103Z,101743.78
2022-08-29T11:26:45.843Z,101742.47
2022-08-29T11:29:57.894Z,101754.31
2022-08-29T11:33:09.918Z,101747.53
2022-08-29T11:36:40.633Z,101761.06
2022-08-29T11:39:59.864Z,101758.25
2022-08-29T11:43:12.420Z,101765.38
2022-08-29T11:46:31.044Z,101762.84
2022-08-29T11:49:40.857Z,101765.75
2022-08-29T11:52:51.033Z,101752.44
2022-08-29T11:56:21.413Z,101763.69
2022-08-29T11:59:59.523Z,101761.56
2022-08-29T12:03:04.561Z,101768.13
2022-08-29T12:06:29.737Z,101759.72
2022-08-29T12:09:51.047Z,101764.16
2022-08-29T12:12:56.527Z,101762.88
2022-08-29T12:16:08.652Z,101767.06
2022-08-29T12:19:12.846Z,101774.44
2022-08-29T12:22:53.033Z,101774.41
2022-08-29T12:26:16.214Z,101769.56
2022-08-29T12:29:22.048Z,101779.94
2022-08-29T12:32:40.278Z,101771.31
2022-08-29T12:36:10.793Z,101774.44
2022-08-29T12:39:46.799Z,101775.88
2022-08-29T12:43:07.748Z,101775.00
2022-08-29T12:46:18.121Z,101775.75
2022-08-29T12:49:25.578Z,101774.16
2022-08-29T12:52:32.289Z,101785.66
2022-08-29T12:55:39.851Z,101780.88
2022-08-29T12:58:45.339Z,101776.06
2022-08-29T13:01:50.452Z,101776.56
2022-08-29T13:04:58.311Z,101773.22
2022-08-29T13:08:09.630Z,101782.59
2022-08-29T13:11:19.617Z,101778.66
2022-08-29T13:14:23.690Z,101774.03
2022-08-29T13:17:29.822Z,101772.38
2022-08-29T13:20:46.727Z,101766.25
2022-08-29T13:23:59.897Z,101776.63
2022-08-29T13:27:06.309Z,101772.31
2022-08-29T13:30:09.995Z,101775.59
2022-08-29T13:33:34.822Z,101774.72
2022-08-29T13:36:41.394Z,101775.22
2022-08-29T13:39:47.837Z,101774.72
2022-08-29T13:42:50.512Z,101770.75
2022-08-29T13:46:03.410Z,101778.38
2022-08-29T13:49:08.426Z,101777.41
2022-08-29T13:52:11.572Z,101777.00
2022-08-29T13:55:15.493Z,101774.16
2022-08-29T13:58:22.686Z,101778.66
2022-08-29T14:02:08.550Z,101773.59
2022-08-29T14:04:48.659Z,101773.41
2022-08-29T14:07:51.457Z,101765.59
2022-08-29T14:10:55.358Z,101767.97
2022-08-29T14:13:57.918Z,101769.09
2022-08-29T14:17:00.672Z,101764.41
2022-08-29T14:20:03.640Z,101765.59
2022-08-29T14:23:06.301Z,101764.09
2022-08-29T14:26:10.229Z,101764.69
2022-08-29T14:29:12.953Z,101760.56
2022-08-29T14:32:15.786Z,101760.63
2022-08-29T14:35:25.731Z,101754.13
2022-08-29T14:38:29.554Z,101754.94
2022-08-29T14:41:33.830Z,101752.41
2022-08-29T14:44:36.426Z,101750.44
2022-08-29T14:47:39.507Z,101747.06
2022-08-29T14:50:42.105Z,101752.00
2022-08-29T14:53:51.605Z,101762.34
2022-08-29T14:56:58.769Z,101764.19
2022-08-29T15:00:01.392Z,101763.22
2022-08-29T15:03:04.463Z,101766.34
2022-08-29T15:06:07.594Z,101758.69
2022-08-29T15:09:10.175Z,101758.91
2022-08-29T15:12:15.721Z,101763.78
2022-08-29T15:15:18.734Z,101757.19
2022-08-29T15:19:00.691Z,101751.53
2022-08-29T15:21:45.362Z,101767.69
2022-08-29T15:24:50.008Z,101757.31
2022-08-29T15:27:53.931Z,101749.81
2022-08-29T15:30:56.542Z,101751.81
2022-08-29T15:33:59.390Z,101754.25
2022-08-29T15:37:02.223Z,101762.88
2022-08-29T15:40:10.936Z,101755.53
2022-08-29T15:43:16.851Z,101758.69
2022-08-29T15:46:19.508Z,101764.63
2022-08-29T15:49:25.557Z,101759.25
2022-08-29T15:52:31.063Z,101759.13
2022-08-29T15:55:33.954Z,101761.63
2022-08-29T15:58:38.006Z,101752.44
2022-08-29T16:01:43.541Z,101760.09
2022-08-29T16:04:47.787Z,101755.63
2022-08-29T16:07:50.601Z,101763.47
2022-08-29T16:10:53.220Z,101761.91
2022-08-29T16:14:15.672Z,101760.53
2022-08-29T16:17:20.347Z,101770.03
2022-08-29T16:20:23.170Z,101770.03
2022-08-29T16:23:25.752Z,101773.03
2022-08-29T16:26:28.464Z,101782.53
2022-08-29T16:29:32.624Z,101775.97
2022-08-29T16:32:35.460Z,101786.75
2022-08-29T16:35:39.174Z,101787.13
2022-08-29T16:38:42.853Z,101784.44
2022-08-29T16:41:46.042Z,101783.94
2022-08-29T16:44:50.007Z,101784.16
2022-08-29T16:47:57.251Z,101781.47
2022-08-29T16:51:00.180Z,101784.94
2022-08-29T16:54:02.785Z,101781.28
2022-08-29T16:57:05.758Z,101784.00
2022-08-29T17:00:11.890Z,101780.28
2022-08-29T17:03:19.412Z,101774.41
2022-08-29T17:06:22.704Z,101778.97
2022-08-29T17:09:25.342Z,101778.25
2022-08-29T17:12:27.490Z,101780.72
2022-08-29T17:15:30.751Z,101778.06
2022-08-29T17:18:33.793Z,101771.91
2022-08-29T17:21:36.683Z,101769.72
2022-08-29T17:24:39.282Z,101775.38
2022-08-29T17:27:55.506Z,101774.25
2022-08-29T17:31:06.492Z,101781.75
2022-08-29T17:34:13.088Z,101781.69
2022-08-29T17:37:16.046Z,101785.94
2022-08-29T17:40:19.131Z,101779.41
2022-08-29T17:43:25.898Z,101790.75
2022-08-29T17:46:30.193Z,101781.75
2022-08-29T17:49:32.961Z,101788.34
2022-08-29T17:52:35.611Z,101790.69
2022-08-29T17:55:38.264Z,101784.44
2022-08-29T17:58:40.881Z,101780.00
2022-08-29T18:01:45.227Z,101780.97
2022-08-29T18:04:47.859Z,101789.03
2022-08-29T18:07:51.397Z,101780.97
2022-08-29T18:10:53.986Z,101781.66
2022-08-29T18:13:56.667Z,101779.50
2022-08-29T18:17:00.674Z,101789.72
2022-08-29T18:20:03.792Z,101784.78
2022-08-29T18:23:06.349Z,101787.97
2022-08-29T18:26:08.961Z,101793.88
2022-08-29T18:29:11.707Z,101796.44
2022-08-29T18:32:15.601Z,101795.84
2022-08-29T18:35:18.673Z,101796.78
2022-08-29T18:38:21.317Z,101801.63
2022-08-29T18:41:23.865Z,101806.72
2022-08-29T18:44:26.426Z,101802.47
2022-08-29T18:47:30.380Z,101815.34
2022-08-29T18:50:36.500Z,101817.75
2022-08-29T18:53:39.780Z,101819.00
2022-08-29T18:56:42.387Z,101826.97
2022-08-29T18:59:45.046Z,101830.53
2022-08-29T19:02:49.122Z,101839.06
2022-08-29T19:05:53.862Z,101833.94
2022-08-29T19:08:57.610Z,101826.06
2022-08-29T19:12:00.544Z,101826.34
2022-08-29T19:15:04.137Z,101832.09
2022-08-29T19:18:09.473Z,101837.75
2022-08-29T19:21:12.093Z,101837.75
2022-08-29T19:24:14.693Z,101840.59
2022-08-29T19:27:39.756Z,101838.47
2022-08-29T19:30:40.090Z,101842.97
2022-08-29T19:33:44.079Z,101838.19
2022-08-29T19:36:47.333Z,101837.75
2022-08-29T19:39:49.942Z,101837.09
2022-08-29T19:42:53.992Z,101832.25
2022-08-29T19:45:57.435Z,101826.63
2022-08-29T19:52:10.786Z,101824.09
2022-08-29T19:55:17.543Z,101819.06
2022-08-29T19:58:20.228Z,101823.22
2022-08-29T20:01:23.359Z,101812.66
2022-08-29T20:04:27.532Z,101819.16
2022-08-29T20:07:30.424Z,101818.38
2022-08-29T20:10:34.882Z,101814.59
2022-08-29T20:13:38.100Z,101820.94
2022-08-29T20:16:41.712Z,101822.50
2022-08-29T20:19:45.943Z,101829.22
2022-08-29T20:22:49.165Z,101825.22
2022-08-29T20:25:51.756Z,101830.91
2022-08-29T20:28:54.841Z,101836.66
2022-08-29T20:31:57.579Z,101833.88
2022-08-29T20:35:02.968Z,101836.56
2022-08-29T20:38:04.599Z,101835.66
2022-08-29T20:41:07.256Z,101837.66
2022-08-29T20:44:10.873Z,101842.63
2022-08-29T20:47:15.621Z,101842.75
2022-08-29T20:50:20.497Z,101845.75
2022-08-29T20:53:32.415Z,101849.25
2022-08-29T20:56:35.423Z,101858.53
2022-08-29T20:59:39.376Z,101853.69
2022-08-29T21:02:59.765Z,101850.81
2022-08-29T21:06:04.329Z,101851.13
2022-08-29T21:09:07.238Z,101847.50
2022-08-29T21:12:11.704Z,101851.94
2022-08-29T21:15:14.320Z,101850.19
2022-08-29T21:18:20.216Z,101847.69
2022-08-29T21:21:25.180Z,101851.47
2022-08-29T21:24:28.783Z,101849.31
2022-08-29T21:27:31.368Z,101844.38
2022-08-29T21:30:34.440Z,101852.59
2022-08-29T21:33:37.958Z,101852.41
2022-08-29T21:36:41.995Z,101862.38
2022-08-29T21:39:46.481Z,101858.09
2022-08-29T21:42:49.037Z,101858.28
2022-08-29T21:45:51.622Z,101862.19
2022-08-29T21:48:56.679Z,101863.78
2022-08-29T21:52:01.062Z,101865.81
2022-08-29T21:55:05.023Z,101869.28
2022-08-29T21:58:07.989Z,101874.34
2022-08-29T22:01:11.364Z,101859.91
2022-08-29T22:04:19.113Z,101856.19
2022-08-29T22:07:33.130Z,101858.72
2022-08-29T22:10:38.241Z,101858.72
2022-08-29T22:13:41.167Z,101859.75
2022-08-29T22:16:42.940Z,101859.19
2022-08-29T22:19:45.758Z,101862.69
2022-08-29T22:22:49.713Z,101870.22
2022-08-29T22:25:53.756Z,101864.00
2022-08-29T22:28:56.705Z,101866.63
2022-08-29T22:32:00.485Z,101860.78
2022-08-29T22:35:03.136Z,101862.28
2022-08-29T22:38:07.091Z,101856.19
2022-08-29T22:41:11.280Z,101859.59
2022-08-29T22:44:59.612Z,101860.47
2022-08-29T22:47:37.664Z,101856.81
2022-08-29T22:50:40.317Z,101854.53
2022-08-29T22:54:08.235Z,101854.41
2022-08-29T22:57:13.593Z,101852.72
2022-08-29T23:00:19.172Z,101854.47
2022-08-29T23:03:21.790Z,101854.47
2022-08-29T23:06:25.299Z,101860.63
2022-08-29T23:09:35.392Z,101860.38
2022-08-29T23:12:39.054Z,101861.09
2022-08-29T23:15:41.706Z,101856.28
2022-08-29T23:18:44.373Z,101855.09
2022-08-29T23:21:46.981Z,101860.84
2022-08-29T23:24:58.233Z,101865.34
2022-08-29T23:28:02.027Z,101861.63
2022-08-29T23:31:04.965Z,101859.16
2022-08-29T23:34:07.999Z,101862.47
2022-08-29T23:37:10.691Z,101866.97
2022-08-29T23:40:21.089Z,101867.84
2022-08-29T23:43:24.505Z,101868.63
2022-08-29T23:46:27.454Z,101866.03
2022-08-29T23:49:30.479Z,101867.53
2022-08-29T23:52:33.114Z,101878.09
2022-08-29T23:55:37.493Z,101870.91
2022-08-29T23:58:40.099Z,101871.59
